Grandview, Arkansas
Current Conditions -  °F | °C
As of 11:53 PM on Sunday 21 Dec 2014 (Local Time) from KHRO Reporting Station
Overcast Overcast  
Wind Chill: 40°   Ceiling: 2800
Heat Index: 44°   Visibility: 10mi
Dew Point: 37°   Wind: 7mph
Humidity: 76%   Direction: 120°ESE
Pressure: 29.81"   Gusts: NA
Location:  36.3056°N, 93.5491°W
Report Text: KHRO 220553Z AUTO 12006KT 10SM OVC028 07/03 A2981 RMK AO2 SLP098 T00670028 10067 20061 400780033 56017 $
Loading
Personal Weather Stations






























Interactive Weather Map New forecast layout! Learn more

10-Day Weather Forecast

Advertisements
Track Severe Weather on mobile